createdAt,value
2023-03-25T00:00:25.402Z,0.60
2023-03-25T00:02:54.110Z,0.70
2023-03-25T00:05:23.440Z,0.90
2023-03-25T00:07:53.622Z,0.80
2023-03-25T00:10:21.867Z,0.60
2023-03-25T00:12:50.099Z,0.90
2023-03-25T00:15:18.358Z,0.70
2023-03-25T00:17:47.917Z,0.70
2023-03-25T00:20:16.131Z,0.77
2023-03-25T00:22:44.915Z,0.80
2023-03-25T00:25:17.753Z,0.80
2023-03-25T00:27:47.813Z,0.80
2023-03-25T00:30:18.038Z,0.60
2023-03-25T00:32:49.828Z,0.93
2023-03-25T00:35:19.977Z,0.80
2023-03-25T00:38:00.031Z,0.80
2023-03-25T00:40:30.867Z,1.25
2023-03-25T00:42:58.985Z,0.70
2023-03-25T00:45:27.056Z,0.70
2023-03-25T00:47:56.728Z,0.73
2023-03-25T00:50:26.237Z,1.10
2023-03-25T00:52:54.703Z,0.70
2023-03-25T00:55:23.484Z,1.30
2023-03-25T00:57:51.759Z,1.15
2023-03-25T01:00:20.619Z,0.80
2023-03-25T01:02:53.816Z,0.80
2023-03-25T01:05:23.623Z,1.20
2023-03-25T01:07:51.825Z,0.98
2023-03-25T01:10:19.982Z,0.98
2023-03-25T01:12:48.280Z,0.70
2023-03-25T01:15:16.693Z,1.52
2023-03-25T01:17:44.945Z,1.90
2023-03-25T01:20:13.567Z,1.02
2023-03-25T01:22:43.261Z,1.00
2023-03-25T01:25:11.720Z,1.00
2023-03-25T01:27:39.990Z,1.15
2023-03-25T01:30:09.499Z,1.15
2023-03-25T01:32:38.217Z,1.08
2023-03-25T01:35:07.797Z,0.80
2023-03-25T01:37:36.810Z,0.90
2023-03-25T01:40:10.421Z,0.80
2023-03-25T01:42:39.192Z,1.20
2023-03-25T01:45:22.447Z,1.27
2023-03-25T01:47:58.594Z,0.90
2023-03-25T01:50:29.140Z,1.15
2023-03-25T01:52:59.560Z,1.00
2023-03-25T01:55:29.205Z,0.85
2023-03-25T01:58:00.149Z,1.00
2023-03-25T02:00:28.586Z,0.73
2023-03-25T02:02:59.951Z,1.45
2023-03-25T02:05:36.061Z,1.00
2023-03-25T02:08:09.209Z,1.77
2023-03-25T02:10:39.281Z,0.90
2023-03-25T02:13:08.912Z,0.95
2023-03-25T02:15:52.561Z,1.10
2023-03-25T02:18:36.286Z,1.00
2023-03-25T02:21:54.003Z,1.25
2023-03-25T02:24:54.042Z,1.33
2023-03-25T02:27:33.971Z,1.08
2023-03-25T02:30:31.718Z,0.70
2023-03-25T02:33:38.842Z,0.50
2023-03-25T02:36:48.686Z,0.50
2023-03-25T02:39:23.366Z,0.60
2023-03-25T02:41:55.401Z,0.70
2023-03-25T02:44:34.171Z,0.60
2023-03-25T02:47:05.934Z,0.50
2023-03-25T02:49:38.170Z,0.40
2023-03-25T02:52:11.905Z,0.88
2023-03-25T02:54:45.235Z,0.52
2023-03-25T02:57:17.158Z,0.75
2023-03-25T02:59:49.016Z,0.63
2023-03-25T03:02:19.564Z,0.60
2023-03-25T03:04:50.032Z,0.52
2023-03-25T03:07:24.027Z,0.60
2023-03-25T03:10:01.525Z,0.50
2023-03-25T03:12:54.828Z,0.50
2023-03-25T03:15:33.852Z,0.50
2023-03-25T03:18:13.189Z,0.50
2023-03-25T03:20:51.231Z,0.95
2023-03-25T03:23:26.734Z,0.65
2023-03-25T03:26:02.065Z,0.60
2023-03-25T03:28:34.638Z,0.70
2023-03-25T03:31:08.840Z,0.50
2023-03-25T03:33:41.309Z,1.10
2023-03-25T03:36:13.764Z,1.00
2023-03-25T03:38:46.930Z,1.02
2023-03-25T03:41:21.174Z,0.55
2023-03-25T03:43:52.585Z,0.88
2023-03-25T03:46:25.695Z,1.00
2023-03-25T03:48:56.465Z,1.00
2023-03-25T03:51:32.090Z,0.75
2023-03-25T03:54:02.782Z,0.70
2023-03-25T03:56:37.292Z,0.60
2023-03-25T03:59:11.245Z,0.70
2023-03-25T04:01:46.697Z,0.80
2023-03-25T04:04:20.168Z,0.68
2023-03-25T04:06:56.997Z,0.80
2023-03-25T04:09:34.670Z,0.70
2023-03-25T04:12:09.932Z,0.90
2023-03-25T04:14:39.062Z,0.70
2023-03-25T04:17:07.922Z,1.13
2023-03-25T04:19:36.280Z,0.88
2023-03-25T04:22:07.124Z,0.80
2023-03-25T04:24:37.757Z,0.70
2023-03-25T04:27:09.698Z,0.73
2023-03-25T04:29:40.086Z,0.70
2023-03-25T04:32:10.055Z,0.80
2023-03-25T04:34:38.428Z,0.70
2023-03-25T04:37:06.741Z,0.80
2023-03-25T04:39:35.063Z,0.98
2023-03-25T04:42:03.593Z,1.27
2023-03-25T04:44:39.350Z,0.90
2023-03-25T04:47:09.140Z,0.70
2023-03-25T04:49:37.214Z,0.93
2023-03-25T04:52:06.443Z,1.08
2023-03-25T04:54:34.796Z,0.80
2023-03-25T04:57:02.918Z,0.98
2023-03-25T04:59:31.143Z,0.90
2023-03-25T05:02:02.539Z,1.15
2023-03-25T05:04:30.781Z,0.90
2023-03-25T05:06:59.296Z,1.15
2023-03-25T05:09:27.395Z,1.05
2023-03-25T05:11:56.130Z,1.10
2023-03-25T05:14:24.430Z,1.25
2023-03-25T05:16:52.814Z,1.00
2023-03-25T05:19:22.316Z,1.80
2023-03-25T05:21:50.499Z,1.30
2023-03-25T05:24:19.486Z,1.17
2023-03-25T05:26:47.676Z,1.25
2023-03-25T05:29:17.041Z,1.30
2023-03-25T05:31:48.692Z,1.90
2023-03-25T05:34:17.763Z,2.00
2023-03-25T05:36:47.866Z,1.23
2023-03-25T05:39:16.546Z,1.45
2023-03-25T05:41:45.855Z,1.20
2023-03-25T05:44:15.559Z,1.15
2023-03-25T05:46:44.261Z,1.40
2023-03-25T05:49:12.467Z,1.20
2023-03-25T05:51:40.691Z,1.33
2023-03-25T05:54:11.450Z,1.58
2023-03-25T05:56:40.420Z,1.10
2023-03-25T05:59:10.417Z,1.08
2023-03-25T06:01:39.036Z,1.52
2023-03-25T06:04:10.100Z,1.45
2023-03-25T06:06:40.305Z,1.10
2023-03-25T06:09:10.148Z,1.42
2023-03-25T06:11:39.336Z,1.40
2023-03-25T06:14:08.387Z,1.50
2023-03-25T06:16:36.955Z,1.27
2023-03-25T06:19:05.395Z,1.20
2023-03-25T06:21:36.419Z,1.38
2023-03-25T06:24:04.777Z,1.70
2023-03-25T06:26:34.255Z,1.73
2023-03-25T06:29:04.039Z,1.45
2023-03-25T06:31:39.732Z,1.65
2023-03-25T06:34:08.138Z,1.10
2023-03-25T06:36:36.257Z,1.27
2023-03-25T06:39:06.468Z,1.35
2023-03-25T06:41:38.127Z,1.27
2023-03-25T06:44:25.898Z,1.13
2023-03-25T06:47:06.676Z,1.13
2023-03-25T06:49:45.580Z,1.08
2023-03-25T06:52:13.757Z,1.35
2023-03-25T06:54:42.107Z,1.38
2023-03-25T06:57:11.640Z,1.02
2023-03-25T06:59:39.963Z,1.10
2023-03-25T07:02:08.280Z,1.40
2023-03-25T07:04:36.586Z,1.35
2023-03-25T07:07:04.746Z,1.55
2023-03-25T07:09:32.823Z,0.90
2023-03-25T07:12:01.082Z,1.00
2023-03-25T07:14:30.546Z,1.73
2023-03-25T07:16:58.643Z,1.20
2023-03-25T07:19:27.124Z,1.10
2023-03-25T07:21:55.210Z,1.13
2023-03-25T07:24:23.558Z,1.55
2023-03-25T07:26:51.703Z,1.00
2023-03-25T07:29:23.389Z,0.90
2023-03-25T07:31:52.866Z,1.10
2023-03-25T07:34:21.083Z,0.77
2023-03-25T07:36:49.848Z,0.93
2023-03-25T07:39:18.747Z,0.90
2023-03-25T07:41:47.412Z,0.70
2023-03-25T07:44:33.385Z,1.20
2023-03-25T07:47:05.787Z,0.70
2023-03-25T07:49:33.896Z,0.80
2023-03-25T07:52:02.122Z,1.02
2023-03-25T07:54:30.254Z,1.05
2023-03-25T07:56:58.901Z,1.05
2023-03-25T07:59:29.306Z,1.10
2023-03-25T08:01:58.061Z,0.90
2023-03-25T08:04:27.532Z,1.10
2023-03-25T08:06:55.978Z,1.20
2023-03-25T08:09:24.524Z,0.80
2023-03-25T08:11:52.595Z,1.13
2023-03-25T08:14:20.646Z,0.80
2023-03-25T08:16:49.108Z,0.90
2023-03-25T08:19:17.211Z,1.27
2023-03-25T08:21:46.749Z,0.90
2023-03-25T08:24:15.438Z,0.73
2023-03-25T08:26:43.662Z,1.20
2023-03-25T08:29:11.961Z,1.00
2023-03-25T08:31:40.812Z,1.00
2023-03-25T08:34:08.976Z,0.80
2023-03-25T08:36:39.682Z,0.93
2023-03-25T08:39:12.052Z,0.80
2023-03-25T08:41:40.901Z,1.27
2023-03-25T08:44:09.385Z,1.00
2023-03-25T08:46:38.364Z,0.88
2023-03-25T08:49:07.319Z,0.90
2023-03-25T08:51:35.519Z,1.00
2023-03-25T08:54:04.812Z,0.80
2023-03-25T08:56:34.844Z,0.80
2023-03-25T08:59:03.152Z,0.60
2023-03-25T09:01:31.373Z,1.00
2023-03-25T09:04:00.537Z,0.73
2023-03-25T09:06:28.690Z,0.70
2023-03-25T09:09:16.517Z,0.60
2023-03-25T09:11:46.033Z,0.80
2023-03-25T09:14:14.242Z,0.70
2023-03-25T09:16:43.494Z,0.70
2023-03-25T09:19:11.907Z,0.60
2023-03-25T09:21:40.928Z,0.65
2023-03-25T09:24:10.114Z,0.60
2023-03-25T09:26:38.456Z,0.60
2023-03-25T09:29:08.172Z,0.50
2023-03-25T09:31:36.488Z,0.70
2023-03-25T09:34:04.657Z,0.70
2023-03-25T09:36:32.830Z,0.55
2023-03-25T09:39:01.009Z,0.50
2023-03-25T09:41:47.324Z,0.50
2023-03-25T09:44:23.240Z,0.50
2023-03-25T09:46:51.565Z,0.63
2023-03-25T09:49:24.098Z,0.50
2023-03-25T09:51:53.785Z,0.50
2023-03-25T09:54:26.493Z,0.60
2023-03-25T09:56:58.151Z,0.60
2023-03-25T09:59:41.291Z,0.85
2023-03-25T10:02:28.715Z,0.70
2023-03-25T10:05:16.814Z,0.60
2023-03-25T10:07:58.061Z,0.65
2023-03-25T10:10:32.188Z,0.80
2023-03-25T10:13:11.452Z,0.70
2023-03-25T10:15:49.245Z,0.60
2023-03-25T10:18:32.632Z,0.90
2023-03-25T10:21:05.861Z,0.80
2023-03-25T10:23:39.409Z,0.60
2023-03-25T10:26:15.255Z,0.60
2023-03-25T10:28:50.561Z,0.77
2023-03-25T10:31:25.363Z,1.08
2023-03-25T10:33:56.475Z,0.70
2023-03-25T10:36:32.961Z,0.60
2023-03-25T10:39:04.202Z,1.00
2023-03-25T10:41:37.365Z,0.70
2023-03-25T10:44:10.465Z,0.65
2023-03-25T10:46:47.642Z,1.45
2023-03-25T10:49:22.064Z,0.80
2023-03-25T10:51:54.076Z,0.60
2023-03-25T10:54:23.869Z,0.70
2023-03-25T10:56:53.576Z,0.63
2023-03-25T10:59:28.148Z,0.50
2023-03-25T11:02:02.240Z,0.50
2023-03-25T11:04:35.322Z,0.50
2023-03-25T11:07:05.745Z,0.90
2023-03-25T11:09:36.903Z,0.85
2023-03-25T11:12:07.534Z,0.80
2023-03-25T11:14:39.981Z,0.60
2023-03-25T11:17:17.263Z,0.70
2023-03-25T11:19:53.838Z,0.90
2023-03-25T11:22:26.121Z,1.15
2023-03-25T11:25:00.729Z,0.60
2023-03-25T11:27:30.825Z,0.70
2023-03-25T11:30:04.479Z,0.60
2023-03-25T11:32:36.656Z,0.80
2023-03-25T11:35:16.219Z,0.82
2023-03-25T11:37:46.882Z,0.80
2023-03-25T11:40:17.587Z,1.42
2023-03-25T11:42:49.697Z,1.10
2023-03-25T11:45:23.821Z,1.10
2023-03-25T11:47:54.481Z,0.75
2023-03-25T11:50:25.198Z,0.95
2023-03-25T11:52:56.927Z,0.80
2023-03-25T11:55:26.832Z,0.75
2023-03-25T11:57:57.585Z,0.80
2023-03-25T12:00:38.997Z,0.98
2023-03-25T12:03:21.055Z,0.80
2023-03-25T12:06:02.012Z,0.80
2023-03-25T12:08:32.226Z,1.25
2023-03-25T12:11:07.069Z,0.68
2023-03-25T12:14:48.689Z,0.88
2023-03-25T12:17:26.805Z,1.40
2023-03-25T12:20:08.216Z,1.00
2023-03-25T12:22:50.403Z,0.90
2023-03-25T12:25:37.566Z,0.98
2023-03-25T12:28:32.375Z,1.05
2023-03-25T12:31:11.554Z,1.10
2023-03-25T12:33:51.586Z,0.73
2023-03-25T12:36:33.696Z,1.00
2023-03-25T12:39:17.343Z,0.90
2023-03-25T12:41:56.011Z,1.00
2023-03-25T12:44:43.838Z,0.80
2023-03-25T12:47:23.151Z,1.23
2023-03-25T12:50:24.892Z,0.82
2023-03-25T12:53:00.350Z,0.70
2023-03-25T12:55:55.086Z,1.10
2023-03-25T12:58:52.942Z,0.65
2023-03-25T13:01:28.360Z,0.90
2023-03-25T13:04:09.722Z,1.10
2023-03-25T13:06:43.627Z,0.88
2023-03-25T13:09:21.500Z,0.95
2023-03-25T13:11:54.165Z,0.98
2023-03-25T13:14:27.282Z,1.00
2023-03-25T13:17:01.397Z,1.17
2023-03-25T13:19:32.451Z,1.52
2023-03-25T13:22:04.760Z,1.05
2023-03-25T13:24:39.617Z,1.10
2023-03-25T13:27:08.504Z,1.00
2023-03-25T13:29:43.075Z,1.20
2023-03-25T13:32:19.125Z,1.45
2023-03-25T13:34:53.145Z,1.05
2023-03-25T13:37:26.694Z,1.25
2023-03-25T13:40:14.024Z,1.42
2023-03-25T13:42:50.781Z,1.15
2023-03-25T13:45:21.772Z,1.48
2023-03-25T13:47:55.586Z,1.25
2023-03-25T13:50:29.173Z,0.80
2023-03-25T13:53:03.529Z,1.00
2023-03-25T13:55:41.018Z,0.80
2023-03-25T13:58:25.093Z,1.20
2023-03-25T14:01:37.695Z,0.90
2023-03-25T14:04:32.305Z,1.10
2023-03-25T14:07:48.231Z,1.10
2023-03-25T14:10:31.286Z,1.25
2023-03-25T14:13:06.828Z,1.20
2023-03-25T14:15:37.932Z,1.50
2023-03-25T14:18:17.304Z,1.27
2023-03-25T14:20:46.943Z,1.10
2023-03-25T14:23:21.365Z,1.00
2023-03-25T14:25:54.269Z,1.23
2023-03-25T14:28:37.455Z,1.85
2023-03-25T14:31:26.828Z,1.05
2023-03-25T14:34:14.144Z,1.20
2023-03-25T14:37:32.291Z,1.40
2023-03-25T14:40:07.223Z,1.25
2023-03-25T14:42:44.106Z,1.00
2023-03-25T14:46:04.278Z,1.50
2023-03-25T14:48:37.864Z,1.27
2023-03-25T14:51:16.712Z,1.20
2023-03-25T14:53:52.403Z,1.20
2023-03-25T14:56:25.929Z,0.90
2023-03-25T14:58:59.413Z,1.10
2023-03-25T15:01:35.639Z,1.08
2023-03-25T15:04:16.220Z,1.20
2023-03-25T15:06:46.324Z,1.00
2023-03-25T15:09:18.731Z,1.63
2023-03-25T15:11:57.626Z,1.30
2023-03-25T15:14:30.864Z,2.35
2023-03-25T15:17:05.098Z,1.40
2023-03-25T15:20:07.251Z,0.80
2023-03-25T15:22:35.448Z,1.25
2023-03-25T15:25:09.461Z,0.95
2023-03-25T15:27:53.948Z,1.30
2023-03-25T15:30:40.604Z,1.17
2023-03-25T15:33:22.621Z,1.40
2023-03-25T15:36:05.447Z,1.00
2023-03-25T15:38:53.096Z,1.13
2023-03-25T15:41:43.892Z,0.90
2023-03-25T15:44:39.401Z,1.45
2023-03-25T15:47:26.270Z,1.20
2023-03-25T15:50:12.530Z,1.20
2023-03-25T15:53:00.334Z,1.00
2023-03-25T15:55:30.568Z,1.27
2023-03-25T15:58:01.571Z,1.00
2023-03-25T16:00:33.868Z,1.15
2023-03-25T16:03:08.523Z,0.93
2023-03-25T16:05:40.416Z,1.23
2023-03-25T16:08:12.427Z,1.50
2023-03-25T16:10:41.492Z,1.20
2023-03-25T16:13:13.268Z,1.27
2023-03-25T16:15:42.192Z,0.90
2023-03-25T16:18:12.530Z,1.23
2023-03-25T16:20:43.334Z,0.85
2023-03-25T16:23:20.480Z,1.23
2023-03-25T16:25:50.233Z,1.20
2023-03-25T16:28:22.269Z,0.80
2023-03-25T16:30:53.555Z,0.90
2023-03-25T16:33:28.285Z,1.02
2023-03-25T16:36:00.382Z,1.00
2023-03-25T16:38:29.156Z,1.38
2023-03-25T16:41:01.972Z,0.98
2023-03-25T16:43:31.904Z,0.88
2023-03-25T16:46:02.277Z,1.05
2023-03-25T16:48:33.660Z,0.98
2023-03-25T16:51:10.086Z,1.30
2023-03-25T16:53:41.044Z,1.05
2023-03-25T16:56:23.414Z,1.90
2023-03-25T16:58:59.997Z,2.10
2023-03-25T17:01:29.367Z,2.38
2023-03-25T17:04:11.725Z,2.10
2023-03-25T17:06:43.836Z,2.20
2023-03-25T17:09:17.752Z,1.88
2023-03-25T17:11:47.077Z,1.98
2023-03-25T17:14:21.170Z,1.48
2023-03-25T17:16:52.659Z,1.75
2023-03-25T17:19:24.394Z,2.20
2023-03-25T17:22:18.643Z,1.40
2023-03-25T17:24:55.502Z,1.83
2023-03-25T17:27:29.029Z,1.38
2023-03-25T17:29:59.499Z,1.10
2023-03-25T17:32:27.889Z,1.38
2023-03-25T17:35:05.175Z,1.60
2023-03-25T17:37:42.579Z,1.50
2023-03-25T17:40:20.984Z,1.85
2023-03-25T17:42:49.826Z,1.40
2023-03-25T17:45:19.211Z,1.45
2023-03-25T17:47:48.304Z,1.88
2023-03-25T17:50:19.120Z,1.55
2023-03-25T17:52:48.782Z,3.00
2023-03-25T17:55:17.277Z,1.70
2023-03-25T17:57:46.513Z,1.90
2023-03-25T18:00:18.543Z,1.40
2023-03-25T18:02:47.237Z,2.03
2023-03-25T18:05:15.900Z,2.15
2023-03-25T18:07:44.015Z,1.35
2023-03-25T18:10:19.410Z,1.85
2023-03-25T18:12:52.008Z,1.02
2023-03-25T18:15:22.276Z,1.27
2023-03-25T18:17:53.125Z,1.60
2023-03-25T18:20:27.141Z,1.30
2023-03-25T18:22:55.887Z,1.20
2023-03-25T18:25:26.016Z,1.30
2023-03-25T18:27:57.690Z,1.20
2023-03-25T18:30:28.753Z,1.10
2023-03-25T18:33:01.544Z,1.02
2023-03-25T18:35:35.591Z,1.40
2023-03-25T18:38:10.628Z,1.20
2023-03-25T18:40:41.861Z,1.20
2023-03-25T18:43:11.003Z,1.85
2023-03-25T18:45:42.727Z,1.10
2023-03-25T18:48:14.765Z,1.40
2023-03-25T18:50:54.057Z,1.27
2023-03-25T18:53:29.349Z,1.40
2023-03-25T18:56:07.034Z,1.00
2023-03-25T18:58:43.740Z,2.47
2023-03-25T19:01:20.128Z,0.80
2023-03-25T19:03:54.268Z,0.80
2023-03-25T19:06:26.601Z,1.00
2023-03-25T19:09:04.560Z,1.35
2023-03-25T19:11:38.073Z,1.00
2023-03-25T19:14:13.420Z,1.50
2023-03-25T19:16:57.275Z,1.50
2023-03-25T19:19:34.941Z,1.00
2023-03-25T19:22:07.138Z,1.33
2023-03-25T19:24:41.009Z,0.90
2023-03-25T19:27:18.203Z,1.10
2023-03-25T19:29:52.408Z,1.00
2023-03-25T19:32:24.153Z,1.42
2023-03-25T19:35:03.311Z,1.20
2023-03-25T19:37:38.038Z,1.25
2023-03-25T19:40:13.341Z,1.10
2023-03-25T19:42:50.595Z,1.33
2023-03-25T19:45:24.054Z,1.00
2023-03-25T19:47:56.096Z,1.80
2023-03-25T19:50:32.248Z,0.90
2023-03-25T19:53:07.023Z,1.15
2023-03-25T19:55:47.920Z,0.90
2023-03-25T19:58:27.132Z,1.10
2023-03-25T20:01:04.901Z,1.02
2023-03-25T20:03:36.981Z,0.90
2023-03-25T20:06:09.940Z,1.30
2023-03-25T20:08:39.965Z,1.20
2023-03-25T20:11:14.550Z,0.90
2023-03-25T20:13:49.762Z,1.05
2023-03-25T20:16:21.978Z,1.40
2023-03-25T20:18:52.027Z,1.20
2023-03-25T20:21:25.788Z,1.05
2023-03-25T20:23:59.580Z,1.13
2023-03-25T20:26:33.370Z,1.20
2023-03-25T20:29:10.864Z,1.20
2023-03-25T20:31:45.318Z,1.45
2023-03-25T20:34:22.780Z,1.38
2023-03-25T20:37:01.775Z,0.95
2023-03-25T20:39:38.838Z,1.45
2023-03-25T20:42:11.969Z,1.85
2023-03-25T20:44:50.262Z,1.30
2023-03-25T20:47:24.944Z,1.25
2023-03-25T20:50:02.234Z,1.10
2023-03-25T20:52:39.747Z,1.13
2023-03-25T20:55:12.844Z,1.25
2023-03-25T20:57:46.067Z,1.17
2023-03-25T21:00:25.671Z,1.95
2023-03-25T21:02:59.912Z,1.17
2023-03-25T21:05:33.781Z,1.65
2023-03-25T21:08:08.642Z,2.47
2023-03-25T21:10:43.695Z,1.60
2023-03-25T21:13:16.563Z,1.83
2023-03-25T21:15:59.507Z,2.00
2023-03-25T21:18:34.637Z,1.50
2023-03-25T21:21:13.154Z,1.55
2023-03-25T21:23:52.646Z,1.50
2023-03-25T21:26:26.251Z,1.90
2023-03-25T21:29:02.302Z,2.13
2023-03-25T21:31:44.787Z,1.65
2023-03-25T21:34:23.337Z,1.92
2023-03-25T21:37:00.130Z,1.50
2023-03-25T21:39:38.063Z,1.50
2023-03-25T21:42:12.593Z,1.17
2023-03-25T21:44:47.755Z,1.23
2023-03-25T21:47:26.232Z,1.35
2023-03-25T21:50:04.067Z,1.20
2023-03-25T21:52:38.753Z,1.35
2023-03-25T21:55:15.776Z,2.28
2023-03-25T21:59:08.390Z,1.50
2023-03-25T22:01:43.814Z,1.30
2023-03-25T22:04:20.512Z,1.08
2023-03-25T22:06:53.127Z,1.58
2023-03-25T22:09:29.102Z,1.83
2023-03-25T22:12:05.148Z,1.15
2023-03-25T22:14:41.027Z,1.10
2023-03-25T22:17:13.785Z,1.48
2023-03-25T22:19:55.889Z,1.95
2023-03-25T22:22:33.362Z,1.75
2023-03-25T22:25:12.234Z,2.05
2023-03-25T22:27:46.841Z,1.23
2023-03-25T22:30:25.935Z,1.88
2023-03-25T22:33:03.924Z,1.63
2023-03-25T22:35:38.666Z,1.55
2023-03-25T22:38:11.398Z,1.70
2023-03-25T22:40:50.037Z,1.90
2023-03-25T22:43:27.732Z,1.90
2023-03-25T22:46:04.187Z,1.60
2023-03-25T22:48:44.121Z,2.78
2023-03-25T22:51:18.818Z,2.30
2023-03-25T22:53:47.079Z,2.10
2023-03-25T22:56:15.862Z,2.33
2023-03-25T22:58:44.405Z,2.53
2023-03-25T23:01:20.805Z,3.03
2023-03-25T23:03:49.276Z,1.90
2023-03-25T23:06:18.989Z,2.72
2023-03-25T23:08:47.808Z,3.05
2023-03-25T23:11:18.929Z,2.72
2023-03-25T23:13:49.129Z,2.70
2023-03-25T23:16:19.580Z,1.95
2023-03-25T23:18:48.485Z,2.10
2023-03-25T23:21:20.882Z,3.00
2023-03-25T23:23:52.899Z,2.58
2023-03-25T23:26:24.820Z,2.30
2023-03-25T23:28:54.850Z,2.03
2023-03-25T23:31:28.193Z,1.98
2023-03-25T23:33:58.114Z,2.30
2023-03-25T23:36:29.372Z,2.25
2023-03-25T23:38:58.761Z,2.33
2023-03-25T23:41:29.217Z,2.00
2023-03-25T23:43:57.439Z,2.33
2023-03-25T23:46:26.446Z,2.30
2023-03-25T23:48:56.142Z,2.00
2023-03-25T23:51:25.807Z,1.60
2023-03-25T23:53:55.548Z,2.13
2023-03-25T23:56:25.734Z,2.50
2023-03-25T23:58:54.062Z,2.60
